createdAt,value
2023-04-01T00:00:13.473Z,14.42
2023-04-01T00:01:19.035Z,14.39
2023-04-01T00:02:22.583Z,14.45
2023-04-01T00:03:32.101Z,14.51
2023-04-01T00:04:35.052Z,14.52
2023-04-01T00:05:39.628Z,14.38
2023-04-01T00:06:43.885Z,14.37
2023-04-01T00:07:48.182Z,14.49
2023-04-01T00:08:54.560Z,14.53
2023-04-01T00:10:00.025Z,14.45
2023-04-01T00:11:07.249Z,14.35
2023-04-01T00:12:10.042Z,14.31
2023-04-01T00:13:15.992Z,14.27
2023-04-01T00:14:24.207Z,14.37
2023-04-01T00:15:28.287Z,14.35
2023-04-01T00:16:32.747Z,14.36
2023-04-01T00:17:36.151Z,14.30
2023-04-01T00:18:45.190Z,14.38
2023-04-01T00:19:47.855Z,14.38
2023-04-01T00:20:58.713Z,14.31
2023-04-01T00:22:02.613Z,14.33
2023-04-01T00:23:07.128Z,14.46
2023-04-01T00:24:10.715Z,14.46
2023-04-01T00:25:18.510Z,14.42
2023-04-01T00:26:27.667Z,14.45
2023-04-01T00:27:31.772Z,14.33
2023-04-01T00:28:37.261Z,14.36
2023-04-01T00:29:42.955Z,14.51
2023-04-01T00:30:47.005Z,14.59
2023-04-01T00:31:50.435Z,14.60
2023-04-01T00:32:55.687Z,14.43
2023-04-01T00:34:01.215Z,14.40
2023-04-01T00:35:05.418Z,14.42
2023-04-01T00:36:10.964Z,14.39
2023-04-01T00:37:15.562Z,14.41
2023-04-01T00:38:20.028Z,14.40
2023-04-01T00:39:24.291Z,14.36
2023-04-01T00:40:30.339Z,14.36
2023-04-01T00:41:34.383Z,14.42
2023-04-01T00:42:37.112Z,14.43
2023-04-01T00:43:40.905Z,14.46
2023-04-01T00:44:44.452Z,14.42
2023-04-01T00:45:49.661Z,14.39
2023-04-01T00:46:53.882Z,14.28
2023-04-01T00:48:01.234Z,14.28
2023-04-01T00:49:05.814Z,14.29
2023-04-01T00:50:11.357Z,14.24
2023-04-01T00:51:20.128Z,14.33
2023-04-01T00:52:27.092Z,14.36
2023-04-01T00:53:32.776Z,14.23
2023-04-01T00:54:37.446Z,14.20
2023-04-01T00:55:56.762Z,14.25
2023-04-01T00:57:03.223Z,14.22
2023-04-01T00:58:09.618Z,14.18
2023-04-01T00:59:17.410Z,14.22
2023-04-01T01:00:22.528Z,14.35
2023-04-01T01:01:36.525Z,14.33
2023-04-01T01:02:42.408Z,14.38
2023-04-01T01:03:48.726Z,14.33
2023-04-01T01:04:54.712Z,14.40
2023-04-01T01:06:10.029Z,14.42
2023-04-01T01:07:29.822Z,14.32
2023-04-01T01:08:47.881Z,14.32
2023-04-01T01:10:04.132Z,14.36
2023-04-01T01:11:12.880Z,14.34
2023-04-01T01:12:26.774Z,14.33
2023-04-01T01:13:49.088Z,14.32
2023-04-01T01:15:04.481Z,14.34
2023-04-01T01:16:18.651Z,14.35
2023-04-01T01:17:32.008Z,14.37
2023-04-01T01:18:40.405Z,14.37
2023-04-01T01:20:12.759Z,14.30
2023-04-01T01:21:44.398Z,14.34
2023-04-01T01:23:02.202Z,14.26
2023-04-01T01:24:32.677Z,14.26
2023-04-01T01:25:42.568Z,14.26
2023-04-01T01:27:04.714Z,14.28
2023-04-01T01:28:29.273Z,14.27
2023-04-01T01:30:01.213Z,14.21
2023-04-01T01:31:15.345Z,14.17
2023-04-01T01:32:40.641Z,14.23
2023-04-01T01:34:13.330Z,14.26
2023-04-01T01:35:25.598Z,14.19
2023-04-01T01:36:35.836Z,14.16
2023-04-01T01:37:43.217Z,14.24
2023-04-01T01:38:48.803Z,14.27
2023-04-01T01:40:00.069Z,14.32
2023-04-01T01:41:06.786Z,14.23
2023-04-01T01:42:13.370Z,14.29
2023-04-01T01:43:23.449Z,14.24
2023-04-01T01:44:30.004Z,14.20
2023-04-01T01:45:48.520Z,14.13
2023-04-01T01:47:02.227Z,14.09
2023-04-01T01:48:17.546Z,14.15
2023-04-01T01:49:31.538Z,14.08
2023-04-01T01:50:37.757Z,14.20
2023-04-01T01:51:44.389Z,14.19
2023-04-01T01:53:04.663Z,14.11
2023-04-01T01:54:08.450Z,14.22
2023-04-01T01:55:30.101Z,14.21
2023-04-01T01:56:37.697Z,14.17
2023-04-01T01:57:46.307Z,14.14
2023-04-01T01:58:54.476Z,14.19
2023-04-01T02:00:14.134Z,14.22
2023-04-01T02:01:30.826Z,14.21
2023-04-01T02:02:38.605Z,14.22
2023-04-01T02:03:44.862Z,14.08
2023-04-01T02:04:48.584Z,14.19
2023-04-01T02:05:57.854Z,14.18
2023-04-01T02:07:04.827Z,14.14
2023-04-01T02:08:22.759Z,14.14
2023-04-01T02:09:28.262Z,14.16
2023-04-01T02:10:39.941Z,14.15
2023-04-01T02:11:52.371Z,14.16
2023-04-01T02:13:07.975Z,14.00
2023-04-01T02:14:23.848Z,14.03
2023-04-01T02:15:39.000Z,13.97
2023-04-01T02:16:57.610Z,14.01
2023-04-01T02:18:08.175Z,14.02
2023-04-01T02:19:15.661Z,14.00
2023-04-01T02:20:31.284Z,14.04
2023-04-01T02:21:39.321Z,14.05
2023-04-01T02:22:48.464Z,13.97
2023-04-01T02:23:57.082Z,13.99
2023-04-01T02:25:11.966Z,13.94
2023-04-01T02:26:27.746Z,13.96
2023-04-01T02:27:40.085Z,14.01
2023-04-01T02:28:46.069Z,14.01
2023-04-01T02:29:53.735Z,13.93
2023-04-01T02:30:58.246Z,13.92
2023-04-01T02:32:02.086Z,13.95
2023-04-01T02:33:07.900Z,13.97
2023-04-01T02:34:12.456Z,13.88
2023-04-01T02:35:21.162Z,13.91
2023-04-01T02:36:25.701Z,13.96
2023-04-01T02:37:33.986Z,13.99
2023-04-01T02:38:39.232Z,14.01
2023-04-01T02:39:43.787Z,14.01
2023-04-01T02:40:51.983Z,13.97
2023-04-01T02:41:57.382Z,13.95
2023-04-01T02:43:01.355Z,13.93
2023-04-01T02:44:05.228Z,13.91
2023-04-01T02:45:11.276Z,13.82
2023-04-01T02:46:13.877Z,13.90
2023-04-01T02:47:17.696Z,13.90
2023-04-01T02:48:25.529Z,13.94
2023-04-01T02:49:29.655Z,14.02
2023-04-01T02:50:33.208Z,14.01
2023-04-01T02:51:40.059Z,13.97
2023-04-01T02:52:50.962Z,13.88
2023-04-01T02:53:56.929Z,13.94
2023-04-01T02:55:01.289Z,13.97
2023-04-01T02:56:13.720Z,13.91
2023-04-01T02:57:17.238Z,14.00
2023-04-01T02:58:23.141Z,14.08
2023-04-01T02:59:26.977Z,14.10
2023-04-01T03:00:32.408Z,14.08
2023-04-01T03:01:45.870Z,14.01
2023-04-01T03:02:51.513Z,13.98
2023-04-01T03:03:55.544Z,13.98
2023-04-01T03:05:00.714Z,14.09
2023-04-01T03:06:11.855Z,14.01
2023-04-01T03:07:19.701Z,14.00
2023-04-01T03:08:30.243Z,14.01
2023-04-01T03:09:32.794Z,14.04
2023-04-01T03:10:36.230Z,14.07
2023-04-01T03:11:42.376Z,13.99
2023-04-01T03:12:46.082Z,14.08
2023-04-01T03:13:49.905Z,14.11
2023-04-01T03:14:53.751Z,14.07
2023-04-01T03:15:57.615Z,14.15
2023-04-01T03:17:04.086Z,14.22
2023-04-01T03:18:10.376Z,14.22
2023-04-01T03:19:17.656Z,14.23
2023-04-01T03:20:26.010Z,14.19
2023-04-01T03:21:31.440Z,14.20
2023-04-01T03:22:41.426Z,14.25
2023-04-01T03:23:49.772Z,14.30
2023-04-01T03:24:52.398Z,14.22
2023-04-01T03:25:56.733Z,14.31
2023-04-01T03:27:00.002Z,14.33
2023-04-01T03:28:14.382Z,14.34
2023-04-01T03:29:17.364Z,14.34
2023-04-01T03:30:22.364Z,14.31
2023-04-01T03:31:32.091Z,14.40
2023-04-01T03:32:36.093Z,14.43
2023-04-01T03:33:41.296Z,14.40
2023-04-01T03:34:44.866Z,14.38
2023-04-01T03:35:53.329Z,14.40
2023-04-01T03:37:00.832Z,14.39
2023-04-01T03:38:08.356Z,14.36
2023-04-01T03:39:19.798Z,14.38
2023-04-01T03:40:23.690Z,14.34
2023-04-01T03:41:28.788Z,14.39
2023-04-01T03:42:33.862Z,14.39
2023-04-01T03:43:38.805Z,14.39
2023-04-01T03:44:51.455Z,14.39
2023-04-01T03:45:58.602Z,14.44
2023-04-01T03:47:01.607Z,14.46
2023-04-01T03:48:07.711Z,14.40
2023-04-01T03:49:12.805Z,14.39
2023-04-01T03:50:16.704Z,14.32
2023-04-01T03:51:20.086Z,14.36
2023-04-01T03:52:24.024Z,14.39
2023-04-01T03:53:28.127Z,14.38
2023-04-01T03:54:33.302Z,14.43
2023-04-01T03:55:38.106Z,14.49
2023-04-01T03:56:43.412Z,14.46
2023-04-01T03:57:46.106Z,14.38
2023-04-01T03:58:55.716Z,14.44
2023-04-01T03:59:58.593Z,14.46
2023-04-01T04:01:02.710Z,14.49
2023-04-01T04:02:05.351Z,14.51
2023-04-01T04:03:10.002Z,14.51
2023-04-01T04:04:14.181Z,14.49
2023-04-01T04:05:18.143Z,14.52
2023-04-01T04:06:21.201Z,14.59
2023-04-01T04:07:24.771Z,14.52
2023-04-01T04:08:35.301Z,14.56
2023-04-01T04:09:40.832Z,14.61
2023-04-01T04:10:47.573Z,14.61
2023-04-01T04:11:52.043Z,14.60
2023-04-01T04:12:58.197Z,14.69
2023-04-01T04:14:00.829Z,14.60
2023-04-01T04:15:04.649Z,14.75
2023-04-01T04:16:08.545Z,14.72
2023-04-01T04:17:17.339Z,14.75
2023-04-01T04:18:20.954Z,14.80
2023-04-01T04:19:26.029Z,14.76
2023-04-01T04:20:28.436Z,14.80
2023-04-01T04:21:32.756Z,14.86
2023-04-01T04:22:35.414Z,14.88
2023-04-01T04:23:39.334Z,14.81
2023-04-01T04:24:43.210Z,14.81
2023-04-01T04:25:56.057Z,14.85
2023-04-01T04:26:59.512Z,14.77
2023-04-01T04:28:02.073Z,14.76
2023-04-01T04:29:05.561Z,14.82
2023-04-01T04:30:10.379Z,14.73
2023-04-01T04:31:13.965Z,14.76
2023-04-01T04:32:16.331Z,14.76
2023-04-01T04:33:20.420Z,14.71
2023-04-01T04:34:23.503Z,14.73
2023-04-01T04:35:26.981Z,14.82
2023-04-01T04:36:29.339Z,14.89
2023-04-01T04:37:32.805Z,14.89
2023-04-01T04:38:35.404Z,14.88
2023-04-01T04:39:39.324Z,14.87
2023-04-01T04:40:44.115Z,14.87
2023-04-01T04:41:47.770Z,14.81
2023-04-01T04:42:50.198Z,14.80
2023-04-01T04:43:56.041Z,14.78
2023-04-01T04:44:58.628Z,14.84
2023-04-01T04:46:02.035Z,14.91
2023-04-01T04:47:04.617Z,14.92
2023-04-01T04:48:10.251Z,14.89
2023-04-01T04:49:12.726Z,14.94
2023-04-01T04:50:16.524Z,14.96
2023-04-01T04:51:20.689Z,14.92
2023-04-01T04:52:24.057Z,14.92
2023-04-01T04:53:27.307Z,14.82
2023-04-01T04:54:31.917Z,14.86
2023-04-01T04:55:34.463Z,14.81
2023-04-01T04:56:39.426Z,14.84
2023-04-01T04:57:42.698Z,14.81
2023-04-01T04:58:46.309Z,14.77
2023-04-01T04:59:48.609Z,14.75
2023-04-01T05:00:52.179Z,14.69
2023-04-01T05:01:54.631Z,14.70
2023-04-01T05:02:58.086Z,14.71
2023-04-01T05:04:00.789Z,14.68
2023-04-01T05:05:04.393Z,14.65
2023-04-01T05:06:08.355Z,14.64
2023-04-01T05:07:12.177Z,14.62
2023-04-01T05:08:14.854Z,14.62
2023-04-01T05:09:18.760Z,14.64
2023-04-01T05:10:22.005Z,14.64
2023-04-01T05:11:27.150Z,14.64
2023-04-01T05:12:31.067Z,14.62
2023-04-01T05:13:34.557Z,14.59
2023-04-01T05:14:37.246Z,14.65
2023-04-01T05:15:40.715Z,14.65
2023-04-01T05:16:43.391Z,14.61
2023-04-01T05:17:47.330Z,14.58
2023-04-01T05:18:49.748Z,14.58
2023-04-01T05:19:53.185Z,14.59
2023-04-01T05:20:56.828Z,14.57
2023-04-01T05:22:00.567Z,14.57
2023-04-01T05:23:03.272Z,14.62
2023-04-01T05:24:10.765Z,14.59
2023-04-01T05:25:13.234Z,14.55
2023-04-01T05:26:17.443Z,14.55
2023-04-01T05:27:19.851Z,14.54
2023-04-01T05:28:25.056Z,14.55
2023-04-01T05:29:28.128Z,14.61
2023-04-01T05:30:31.692Z,14.62
2023-04-01T05:31:35.008Z,14.61
2023-04-01T05:32:39.017Z,14.58
2023-04-01T05:33:41.602Z,14.61
2023-04-01T05:34:45.508Z,14.67
2023-04-01T05:35:48.390Z,14.71
2023-04-01T05:36:51.771Z,14.77
2023-04-01T05:37:54.378Z,14.82
2023-04-01T05:38:58.084Z,14.77
2023-04-01T05:40:00.710Z,14.81
2023-04-01T05:41:06.046Z,14.79
2023-04-01T05:42:09.937Z,14.72
2023-04-01T05:43:12.824Z,14.79
2023-04-01T05:44:18.573Z,14.77
2023-04-01T05:45:22.489Z,14.73
2023-04-01T05:46:27.568Z,14.72
2023-04-01T05:47:30.141Z,14.70
2023-04-01T05:48:36.038Z,14.70
2023-04-01T05:49:38.742Z,14.75
2023-04-01T05:50:44.150Z,14.67
2023-04-01T05:51:47.385Z,14.75
2023-04-01T05:52:51.374Z,14.78
2023-04-01T05:53:54.267Z,14.77
2023-04-01T05:54:58.262Z,14.80
2023-04-01T05:56:04.908Z,14.76
2023-04-01T05:57:08.663Z,14.75
2023-04-01T05:58:11.809Z,14.75
2023-04-01T05:59:15.612Z,14.77
2023-04-01T06:00:21.084Z,14.80
2023-04-01T06:01:24.853Z,14.91
2023-04-01T06:02:27.384Z,14.90
2023-04-01T06:03:31.061Z,14.97
2023-04-01T06:04:38.914Z,14.95
2023-04-01T06:05:44.433Z,15.00
2023-04-01T06:06:47.186Z,14.96
2023-04-01T06:07:51.026Z,14.97
2023-04-01T06:08:54.020Z,15.02
2023-04-01T06:09:57.579Z,15.00
2023-04-01T06:11:14.831Z,15.14
2023-04-01T06:12:51.092Z,15.11
2023-04-01T06:14:14.574Z,15.15
2023-04-01T06:15:37.034Z,15.20
2023-04-01T06:16:53.370Z,15.24
2023-04-01T06:18:29.214Z,15.24
2023-04-01T06:19:42.966Z,15.17
2023-04-01T06:20:55.763Z,15.23
2023-04-01T06:22:31.953Z,15.19
2023-04-01T06:23:55.642Z,15.21
2023-04-01T06:25:33.114Z,15.25
2023-04-01T06:26:40.854Z,15.27
2023-04-01T06:28:02.462Z,15.34
2023-04-01T06:29:39.767Z,15.37
2023-04-01T06:30:47.954Z,15.32
2023-04-01T06:32:24.413Z,15.44
2023-04-01T06:33:36.799Z,15.46
2023-04-01T06:35:04.478Z,15.55
2023-04-01T06:36:26.363Z,15.57
2023-04-01T06:37:53.190Z,15.48
2023-04-01T06:39:12.531Z,15.38
2023-04-01T06:40:38.189Z,15.18
2023-04-01T06:41:59.223Z,15.09
2023-04-01T06:43:14.746Z,15.18
2023-04-01T06:44:26.732Z,15.19
2023-04-01T06:45:38.347Z,15.00
2023-04-01T06:46:48.419Z,15.11
2023-04-01T06:48:16.880Z,15.09
2023-04-01T06:49:34.512Z,15.05
2023-04-01T06:50:57.291Z,15.03
2023-04-01T06:52:12.145Z,15.03
2023-04-01T06:53:19.520Z,14.94
2023-04-01T06:54:28.402Z,15.06
2023-04-01T06:55:39.008Z,15.06
2023-04-01T06:56:47.644Z,15.10
2023-04-01T06:57:54.157Z,15.17
2023-04-01T06:59:03.511Z,15.32
2023-04-01T07:00:13.722Z,15.19
2023-04-01T07:01:23.275Z,15.22
2023-04-01T07:02:34.927Z,15.35
2023-04-01T07:03:42.846Z,15.32
2023-04-01T07:04:51.205Z,15.25
2023-04-01T07:05:55.460Z,15.22
2023-04-01T07:07:02.365Z,15.30
2023-04-01T07:08:07.657Z,15.25
2023-04-01T07:09:17.415Z,15.26
2023-04-01T07:10:24.694Z,15.33
2023-04-01T07:11:32.357Z,15.33
2023-04-01T07:12:43.473Z,15.26
2023-04-01T07:13:53.656Z,15.17
2023-04-01T07:14:58.757Z,15.19
2023-04-01T07:16:13.320Z,15.20
2023-04-01T07:17:18.874Z,15.17
2023-04-01T07:18:31.030Z,15.38
2023-04-01T07:19:39.962Z,15.19
2023-04-01T07:20:42.492Z,15.25
2023-04-01T07:21:50.546Z,15.12
2023-04-01T07:22:56.187Z,15.18
2023-04-01T07:24:06.739Z,15.05
2023-04-01T07:25:15.145Z,15.23
2023-04-01T07:26:21.908Z,15.28
2023-04-01T07:27:26.108Z,15.35
2023-04-01T07:28:33.085Z,15.35
2023-04-01T07:29:36.934Z,15.17
2023-04-01T07:30:51.951Z,15.35
2023-04-01T07:32:15.373Z,15.37
2023-04-01T07:33:38.836Z,15.33
2023-04-01T07:34:51.849Z,15.40
2023-04-01T07:36:00.195Z,15.35
2023-04-01T07:37:12.352Z,15.57
2023-04-01T07:38:29.324Z,15.75
2023-04-01T07:39:42.494Z,15.84
2023-04-01T07:40:53.668Z,15.91
2023-04-01T07:42:04.061Z,15.87
2023-04-01T07:43:32.882Z,15.71
2023-04-01T07:44:47.176Z,15.75
2023-04-01T07:45:58.182Z,15.73
2023-04-01T07:47:23.585Z,15.88
2023-04-01T07:48:35.079Z,16.03
2023-04-01T07:49:49.001Z,16.10
2023-04-01T07:51:02.874Z,15.99
2023-04-01T07:52:12.475Z,15.84
2023-04-01T07:53:25.582Z,15.74
2023-04-01T07:54:41.637Z,15.86
2023-04-01T07:55:50.285Z,15.87
2023-04-01T07:57:04.172Z,15.68
2023-04-01T07:58:16.554Z,15.70
2023-04-01T07:59:29.104Z,15.73
2023-04-01T08:00:40.636Z,15.63
2023-04-01T08:01:52.979Z,15.62
2023-04-01T08:03:19.470Z,15.67
2023-04-01T08:04:39.507Z,15.81
2023-04-01T08:05:49.277Z,15.90
2023-04-01T08:07:00.603Z,16.01
2023-04-01T08:08:15.344Z,16.15
2023-04-01T08:09:25.596Z,16.26
2023-04-01T08:10:38.054Z,16.28
2023-04-01T08:12:00.301Z,16.17
2023-04-01T08:13:15.844Z,15.75
2023-04-01T08:14:26.283Z,15.96
2023-04-01T08:15:36.375Z,16.26
2023-04-01T08:16:47.100Z,16.28
2023-04-01T08:18:04.149Z,16.32
2023-04-01T08:19:18.405Z,16.20
2023-04-01T08:20:32.954Z,16.51
2023-04-01T08:21:45.118Z,16.56
2023-04-01T08:22:53.087Z,16.52
2023-04-01T08:23:59.740Z,16.57
2023-04-01T08:25:07.827Z,16.54
2023-04-01T08:26:17.698Z,16.56
2023-04-01T08:27:26.783Z,16.64
2023-04-01T08:28:34.868Z,16.46
2023-04-01T08:29:45.443Z,16.45
2023-04-01T08:30:54.823Z,16.50
2023-04-01T08:32:02.123Z,16.44
2023-04-01T08:33:13.024Z,16.53
2023-04-01T08:34:20.831Z,16.56
2023-04-01T08:35:35.544Z,16.68
2023-04-01T08:36:45.904Z,16.72
2023-04-01T08:37:49.837Z,16.78
2023-04-01T08:38:57.096Z,16.88
2023-04-01T08:40:04.382Z,16.70
2023-04-01T08:41:39.560Z,16.81
2023-04-01T08:42:58.025Z,16.83
2023-04-01T08:44:21.692Z,16.86
2023-04-01T08:45:47.644Z,16.70
2023-04-01T08:47:10.821Z,16.87
2023-04-01T08:48:30.442Z,16.79
2023-04-01T08:50:04.094Z,16.70
2023-04-01T08:51:23.100Z,16.65
2023-04-01T08:52:36.368Z,16.70
2023-04-01T08:54:14.368Z,16.52
2023-04-01T08:55:54.515Z,16.72
2023-04-01T08:57:01.868Z,16.64
2023-04-01T08:58:40.965Z,16.75
2023-04-01T08:59:59.849Z,16.90
2023-04-01T09:01:16.223Z,17.05
2023-04-01T09:02:49.662Z,16.94
2023-04-01T09:04:16.219Z,16.81
2023-04-01T09:06:01.018Z,16.70
2023-04-01T09:07:21.362Z,16.67
2023-04-01T09:08:41.505Z,16.96
2023-04-01T09:10:33.064Z,16.95
2023-04-01T09:11:58.136Z,17.16
2023-04-01T09:13:29.549Z,17.24
2023-04-01T09:15:02.010Z,17.13
2023-04-01T09:16:30.153Z,17.26
2023-04-01T09:17:53.654Z,17.34
2023-04-01T09:19:24.018Z,17.34
2023-04-01T09:20:49.997Z,17.14
2023-04-01T09:22:25.066Z,16.99
2023-04-01T09:24:08.749Z,17.11
2023-04-01T09:25:49.228Z,17.21
2023-04-01T09:27:07.696Z,17.51
2023-04-01T09:28:16.931Z,17.74
2023-04-01T09:29:34.840Z,17.88
2023-04-01T09:31:12.259Z,17.90
2023-04-01T09:32:55.667Z,17.95
2023-04-01T09:34:25.617Z,17.81
2023-04-01T09:35:42.333Z,17.57
2023-04-01T09:36:52.697Z,17.43
2023-04-01T09:38:14.621Z,17.22
2023-04-01T09:39:37.944Z,17.44
2023-04-01T09:40:51.359Z,17.46
2023-04-01T09:42:07.441Z,17.29
2023-04-01T09:43:42.333Z,17.40
2023-04-01T09:44:54.080Z,17.58
2023-04-01T09:46:21.814Z,17.84
2023-04-01T09:47:43.824Z,17.60
2023-04-01T09:49:26.125Z,17.58
2023-04-01T09:50:42.573Z,17.45
2023-04-01T09:51:56.954Z,17.43
2023-04-01T09:53:13.075Z,17.39
2023-04-01T09:54:30.076Z,17.40
2023-04-01T09:56:04.681Z,17.69
2023-04-01T09:57:31.448Z,17.65
2023-04-01T09:59:12.879Z,17.89
2023-04-01T10:00:52.291Z,17.93
2023-04-01T10:02:17.808Z,18.16
2023-04-01T10:03:57.851Z,18.55
2023-04-01T10:05:57.375Z,18.77
2023-04-01T10:07:42.607Z,20.00
2023-04-01T10:09:22.051Z,20.89
2023-04-01T10:11:02.112Z,21.35
2023-04-01T10:12:34.022Z,21.67
2023-04-01T10:14:12.808Z,22.49
2023-04-01T10:15:52.937Z,23.26
2023-04-01T10:17:40.045Z,23.81
2023-04-01T10:19:15.720Z,23.83
2023-04-01T10:20:54.034Z,24.59
2023-04-01T10:22:36.375Z,23.09
2023-04-01T10:24:12.480Z,22.39
2023-04-01T10:25:41.350Z,22.26
2023-04-01T10:27:09.511Z,22.89
2023-04-01T10:28:51.853Z,22.51
2023-04-01T10:30:17.672Z,22.48
2023-04-01T10:31:52.451Z,22.46
2023-04-01T10:33:32.918Z,22.74
2023-04-01T10:35:21.014Z,22.36
2023-04-01T10:36:53.759Z,22.77
2023-04-01T10:38:42.084Z,22.84
2023-04-01T10:40:34.073Z,24.01
2023-04-01T10:42:23.137Z,24.56
2023-04-01T10:43:57.422Z,24.35
2023-04-01T10:45:50.773Z,24.18
2023-04-01T10:47:27.879Z,23.70
2023-04-01T10:49:05.435Z,24.06
2023-04-01T10:50:50.871Z,24.03
2023-04-01T10:52:31.778Z,23.83
2023-04-01T10:53:48.510Z,23.38
2023-04-01T10:55:07.066Z,23.27
2023-04-01T10:56:41.449Z,23.41
2023-04-01T10:58:11.847Z,23.86
2023-04-01T11:00:00.169Z,23.66
2023-04-01T11:01:54.934Z,23.16
2023-04-01T11:03:38.619Z,23.48
2023-04-01T11:05:21.124Z,23.02
2023-04-01T11:07:11.590Z,21.77
2023-04-01T11:08:56.412Z,21.16
2023-04-01T11:10:33.084Z,21.41
2023-04-01T11:11:57.049Z,21.92
2023-04-01T11:13:39.799Z,22.07
2023-04-01T11:15:02.957Z,22.26
2023-04-01T11:16:41.969Z,21.75
2023-04-01T11:18:36.491Z,20.60
2023-04-01T11:20:16.475Z,20.14
2023-04-01T11:21:58.635Z,20.09
2023-04-01T11:23:21.139Z,20.15
2023-04-01T11:24:43.649Z,20.15
2023-04-01T11:26:08.215Z,20.45
2023-04-01T11:27:27.762Z,21.01
2023-04-01T11:29:04.280Z,20.99
2023-04-01T11:30:20.313Z,21.03
2023-04-01T11:31:37.690Z,20.36
2023-04-01T11:32:55.363Z,20.64
2023-04-01T11:34:09.352Z,20.75
2023-04-01T11:35:36.141Z,20.92
2023-04-01T11:36:55.734Z,20.93
2023-04-01T11:38:08.808Z,20.99
2023-04-01T11:39:26.840Z,21.73
2023-04-01T11:40:36.912Z,21.63
2023-04-01T11:41:48.497Z,21.46
2023-04-01T11:42:57.668Z,21.56
2023-04-01T11:44:18.465Z,21.93
2023-04-01T11:45:36.412Z,21.67
2023-04-01T11:46:52.186Z,21.32
2023-04-01T11:48:17.038Z,20.88
2023-04-01T11:49:39.110Z,20.49
2023-04-01T11:51:00.242Z,20.70
2023-04-01T11:52:24.045Z,20.36
2023-04-01T11:53:39.020Z,20.45
2023-04-01T11:54:59.995Z,20.27
2023-04-01T11:56:17.245Z,20.69
2023-04-01T11:57:41.269Z,21.35
2023-04-01T11:59:13.957Z,21.28
2023-04-01T12:00:31.508Z,21.56
2023-04-01T12:01:54.410Z,21.64
2023-04-01T12:03:16.353Z,21.83
2023-04-01T12:04:55.867Z,21.77
2023-04-01T12:06:07.756Z,21.44
2023-04-01T12:07:21.050Z,20.74
2023-04-01T12:08:37.677Z,20.09
2023-04-01T12:09:52.684Z,20.03
2023-04-01T12:11:03.607Z,19.99
2023-04-01T12:12:20.501Z,19.91
2023-04-01T12:13:35.098Z,19.20
2023-04-01T12:14:46.216Z,18.95
2023-04-01T12:16:06.925Z,18.99
2023-04-01T12:17:30.090Z,18.80
2023-04-01T12:18:41.539Z,18.36
2023-04-01T12:19:54.950Z,18.31
2023-04-01T12:21:02.876Z,18.45
2023-04-01T12:22:39.768Z,18.66
2023-04-01T12:24:00.818Z,18.44
2023-04-01T12:25:24.341Z,18.33
2023-04-01T12:26:55.445Z,18.24
2023-04-01T12:28:17.990Z,17.92
2023-04-01T12:29:46.100Z,17.86
2023-04-01T12:31:01.786Z,17.96
2023-04-01T12:32:17.306Z,17.76
2023-04-01T12:33:47.071Z,17.50
2023-04-01T12:35:05.000Z,17.18
2023-04-01T12:36:21.585Z,17.21
2023-04-01T12:37:34.852Z,17.27
2023-04-01T12:38:46.833Z,17.43
2023-04-01T12:40:19.906Z,17.23
2023-04-01T12:41:32.528Z,17.30
2023-04-01T12:42:54.360Z,17.43
2023-04-01T12:44:12.318Z,17.57
2023-04-01T12:45:37.303Z,17.76
2023-04-01T12:47:08.899Z,17.74
2023-04-01T12:48:39.910Z,17.94
2023-04-01T12:50:08.431Z,17.82
2023-04-01T12:51:32.200Z,17.94
2023-04-01T12:52:49.867Z,18.17
2023-04-01T12:54:36.606Z,18.57
2023-04-01T12:55:44.190Z,18.65
2023-04-01T12:57:01.564Z,18.94
2023-04-01T12:58:43.528Z,18.53
2023-04-01T13:00:17.447Z,18.51
2023-04-01T13:02:00.363Z,17.95
2023-04-01T13:03:29.993Z,17.62
2023-04-01T13:05:03.898Z,17.67
2023-04-01T13:06:32.212Z,18.25
2023-04-01T13:07:55.465Z,19.11
2023-04-01T13:09:08.027Z,19.71
2023-04-01T13:10:22.468Z,20.60
2023-04-01T13:11:38.768Z,21.35
2023-04-01T13:13:01.823Z,21.31
2023-04-01T13:14:40.165Z,20.63
2023-04-01T13:15:47.774Z,20.61
2023-04-01T13:16:59.337Z,20.28
2023-04-01T13:18:17.234Z,20.62
2023-04-01T13:19:28.321Z,20.65
2023-04-01T13:20:48.927Z,20.65
2023-04-01T13:22:00.137Z,20.57
2023-04-01T13:23:11.501Z,19.97
2023-04-01T13:24:27.153Z,19.58
2023-04-01T13:25:40.906Z,19.63
2023-04-01T13:26:56.506Z,19.92
2023-04-01T13:28:06.046Z,20.29
2023-04-01T13:29:16.210Z,20.53
2023-04-01T13:30:27.610Z,20.84
2023-04-01T13:31:52.149Z,20.86
2023-04-01T13:33:03.034Z,21.53
2023-04-01T13:34:25.338Z,21.59
2023-04-01T13:35:39.327Z,21.47
2023-04-01T13:36:54.329Z,21.70
2023-04-01T13:38:10.953Z,21.76
2023-04-01T13:39:37.762Z,22.41
2023-04-01T13:41:03.039Z,22.57
2023-04-01T13:42:16.345Z,23.04
2023-04-01T13:43:24.800Z,23.41
2023-04-01T13:44:37.294Z,23.30
2023-04-01T13:45:51.501Z,23.22
2023-04-01T13:47:30.899Z,22.98
2023-04-01T13:49:12.689Z,22.50
2023-04-01T13:50:38.210Z,22.50
2023-04-01T13:52:01.812Z,22.59
2023-04-01T13:53:34.411Z,22.40
2023-04-01T13:55:01.711Z,22.43
2023-04-01T13:56:26.909Z,22.45
2023-04-01T13:57:44.822Z,22.27
2023-04-01T13:59:12.668Z,22.64
2023-04-01T14:00:41.150Z,22.89
2023-04-01T14:01:52.575Z,23.16
2023-04-01T14:03:43.978Z,23.36
2023-04-01T14:05:00.899Z,23.01
2023-04-01T14:06:30.849Z,22.98
2023-04-01T14:07:51.492Z,22.36
2023-04-01T14:09:18.238Z,22.51
2023-04-01T14:10:28.950Z,22.85
2023-04-01T14:11:38.307Z,22.27
2023-04-01T14:12:50.403Z,21.90
2023-04-01T14:14:03.655Z,21.82
2023-04-01T14:15:26.464Z,21.66
2023-04-01T14:16:55.400Z,21.69
2023-04-01T14:18:26.536Z,22.38
2023-04-01T14:19:51.985Z,22.61
2023-04-01T14:21:07.646Z,22.93
2023-04-01T14:22:24.656Z,23.08
2023-04-01T14:23:50.667Z,23.47
2023-04-01T14:25:26.290Z,23.45
2023-04-01T14:26:56.114Z,23.82
2023-04-01T14:28:10.466Z,23.93
2023-04-01T14:29:27.335Z,23.67
2023-04-01T14:30:53.692Z,23.16
2023-04-01T14:32:09.213Z,22.33
2023-04-01T14:33:22.437Z,22.02
2023-04-01T14:34:41.217Z,21.99
2023-04-01T14:35:51.710Z,22.21
2023-04-01T14:37:13.798Z,21.69
2023-04-01T14:38:29.858Z,21.98
2023-04-01T14:39:52.390Z,22.61
2023-04-01T14:41:01.296Z,22.52
2023-04-01T14:42:24.694Z,22.95
2023-04-01T14:43:47.628Z,23.03
2023-04-01T14:45:11.971Z,22.64
2023-04-01T14:46:46.501Z,22.41
2023-04-01T14:47:55.165Z,22.89
2023-04-01T14:49:02.065Z,23.19
2023-04-01T14:50:11.905Z,23.32
2023-04-01T14:51:21.486Z,23.25
2023-04-01T14:52:29.848Z,23.03
2023-04-01T14:53:39.850Z,22.94
2023-04-01T14:54:45.209Z,23.45
2023-04-01T14:55:52.853Z,23.09
2023-04-01T14:57:13.693Z,23.47
2023-04-01T14:58:19.377Z,23.34
2023-04-01T14:59:30.133Z,23.56
2023-04-01T15:00:48.645Z,23.20
2023-04-01T15:02:00.935Z,23.60
2023-04-01T15:03:14.400Z,23.65
2023-04-01T15:04:44.601Z,23.64
2023-04-01T15:05:51.746Z,23.35
2023-04-01T15:07:12.024Z,23.34
2023-04-01T15:08:23.353Z,23.02
2023-04-01T15:09:40.031Z,23.33
2023-04-01T15:11:10.878Z,22.62
2023-04-01T15:12:22.659Z,23.19
2023-04-01T15:13:52.145Z,22.89
2023-04-01T15:15:14.338Z,22.98
2023-04-01T15:16:25.260Z,22.40
2023-04-01T15:17:49.774Z,22.60
2023-04-01T15:19:03.395Z,22.33
2023-04-01T15:20:38.379Z,22.09
2023-04-01T15:21:52.878Z,22.45
2023-04-01T15:23:24.020Z,21.58
2023-04-01T15:24:40.517Z,21.48
2023-04-01T15:26:11.125Z,22.25
2023-04-01T15:27:26.515Z,22.13
2023-04-01T15:28:37.455Z,21.66
2023-04-01T15:30:11.720Z,21.00
2023-04-01T15:31:19.052Z,21.36
2023-04-01T15:32:30.211Z,21.51
2023-04-01T15:33:50.446Z,22.04
2023-04-01T15:35:02.144Z,21.89
2023-04-01T15:36:18.076Z,21.69
2023-04-01T15:37:29.845Z,21.97
2023-04-01T15:38:44.131Z,22.11
2023-04-01T15:39:59.801Z,22.28
2023-04-01T15:41:12.006Z,22.19
2023-04-01T15:42:39.053Z,21.81
2023-04-01T15:43:44.908Z,21.35
2023-04-01T15:45:01.254Z,21.19
2023-04-01T15:46:22.918Z,21.58
2023-04-01T15:47:39.199Z,22.01
2023-04-01T15:49:00.892Z,22.12
2023-04-01T15:50:29.095Z,21.57
2023-04-01T15:51:49.526Z,21.14
2023-04-01T15:53:02.213Z,21.00
2023-04-01T15:54:28.287Z,20.44
2023-04-01T15:55:37.983Z,20.46
2023-04-01T15:57:02.198Z,20.07
2023-04-01T15:58:34.700Z,20.18
2023-04-01T16:00:03.113Z,19.92
2023-04-01T16:01:16.161Z,19.25
2023-04-01T16:02:26.071Z,19.42
2023-04-01T16:03:40.427Z,19.27
2023-04-01T16:04:57.059Z,19.25